createdAt,value
2023-01-23T00:01:32.048Z,101161.34
2023-01-23T00:03:59.282Z,101157.00
2023-01-23T00:06:27.076Z,101155.31
2023-01-23T00:08:56.162Z,101148.28
2023-01-23T00:11:28.395Z,101150.19
2023-01-23T00:13:57.805Z,101160.69
2023-01-23T00:16:29.122Z,101151.97
2023-01-23T00:18:56.663Z,101151.13
2023-01-23T00:21:27.914Z,101156.38
2023-01-23T00:23:58.035Z,101150.38
2023-01-23T00:26:29.345Z,101150.38
2023-01-23T00:28:56.985Z,101150.38
2023-01-23T00:31:32.036Z,101137.31
2023-01-23T00:34:06.245Z,101140.81
2023-01-23T00:36:42.507Z,101136.47
2023-01-23T00:39:16.651Z,101133.00
2023-01-23T00:41:46.470Z,101136.59
2023-01-23T00:44:14.180Z,101135.75
2023-01-23T00:46:41.335Z,101129.66
2023-01-23T00:49:09.141Z,101134.06
2023-01-23T00:51:36.175Z,101135.84
2023-01-23T00:54:03.559Z,101150.75
2023-01-23T00:56:31.224Z,101148.13
2023-01-23T00:58:58.218Z,101149.09
2023-01-23T01:01:25.943Z,101155.25
2023-01-23T01:03:53.627Z,101150.00
2023-01-23T01:06:20.894Z,101157.13
2023-01-23T01:08:48.511Z,101151.03
2023-01-23T01:11:17.133Z,101152.81
2023-01-23T01:13:45.060Z,101153.78
2023-01-23T01:16:12.138Z,101158.28
2023-01-23T01:18:39.447Z,101159.19
2023-01-23T01:21:12.260Z,101154.06
2023-01-23T01:23:40.239Z,101162.97
2023-01-23T01:26:08.092Z,101164.84
2023-01-23T01:28:37.945Z,101165.03
2023-01-23T01:31:09.479Z,101172.16
2023-01-23T01:33:39.395Z,101173.13
2023-01-23T01:36:17.463Z,101174.22
2023-01-23T01:38:47.225Z,101166.53
2023-01-23T01:41:15.497Z,101164.94
2023-01-23T01:43:43.017Z,101154.63
2023-01-23T01:46:21.735Z,101151.34
2023-01-23T01:49:02.326Z,101164.47
2023-01-23T01:51:40.587Z,101166.47
2023-01-23T01:54:41.297Z,101179.59
2023-01-23T01:57:33.457Z,101177.88
2023-01-23T02:00:18.741Z,101174.41
2023-01-23T02:02:54.750Z,101177.03
2023-01-23T02:05:36.227Z,101172.72
2023-01-23T02:08:58.450Z,101175.34
2023-01-23T02:11:25.447Z,101177.97
2023-01-23T02:13:55.225Z,101186.69
2023-01-23T02:16:29.472Z,101191.09
2023-01-23T02:19:02.728Z,101187.53
2023-01-23T02:21:29.951Z,101195.41
2023-01-23T02:24:24.703Z,101188.38
2023-01-23T02:26:52.852Z,101191.88
2023-01-23T02:29:20.451Z,101190.94
2023-01-23T02:31:53.270Z,101182.09
2023-01-23T02:34:22.706Z,101190.72
2023-01-23T02:36:50.533Z,101193.34
2023-01-23T02:39:20.014Z,101195.03
2023-01-23T02:41:52.931Z,101186.22
2023-01-23T02:44:29.371Z,101196.66
2023-01-23T02:47:07.749Z,101192.25
2023-01-23T02:49:34.700Z,101200.84
2023-01-23T02:52:05.721Z,101199.19
2023-01-23T02:54:33.248Z,101191.19
2023-01-23T02:57:01.700Z,101185.84
2023-01-23T02:59:48.533Z,101187.53
2023-01-23T03:02:15.727Z,101184.00
2023-01-23T03:04:42.668Z,101186.41
2023-01-23T03:07:09.579Z,101180.31
2023-01-23T03:09:37.923Z,101179.28
2023-01-23T03:12:04.973Z,101182.69
2023-01-23T03:14:32.285Z,101176.47
2023-01-23T03:16:59.413Z,101172.91
2023-01-23T03:19:31.225Z,101177.22
2023-01-23T03:21:59.087Z,101173.66
2023-01-23T03:24:26.010Z,101180.59
2023-01-23T03:26:52.957Z,101177.06
2023-01-23T03:29:43.952Z,101181.34
2023-01-23T03:32:15.124Z,101184.00
2023-01-23T03:34:43.256Z,101188.41
2023-01-23T03:37:12.792Z,101179.56
2023-01-23T03:40:01.399Z,101184.81
2023-01-23T03:42:28.524Z,101184.72
2023-01-23T03:44:57.964Z,101192.59
2023-01-23T03:47:28.038Z,101191.66
2023-01-23T03:49:55.897Z,101189.03
2023-01-23T03:52:23.290Z,101185.47
2023-01-23T03:54:50.529Z,101180.22
2023-01-23T03:57:18.107Z,101185.47
2023-01-23T03:59:47.955Z,101182.84
2023-01-23T04:02:16.629Z,101194.13
2023-01-23T04:04:43.905Z,101186.25
2023-01-23T04:07:10.981Z,101200.22
2023-01-23T04:09:39.770Z,101206.31
2023-01-23T04:12:07.327Z,101211.56
2023-01-23T04:14:38.349Z,101208.09
2023-01-23T04:17:07.076Z,101204.63
2023-01-23T04:19:35.639Z,101215.97
2023-01-23T04:22:04.831Z,101217.75
2023-01-23T04:24:38.526Z,101215.03
2023-01-23T04:27:05.450Z,101212.41
2023-01-23T04:29:34.014Z,101219.44
2023-01-23T04:32:02.317Z,101216.81
2023-01-23T04:34:31.198Z,101215.88
2023-01-23T04:36:58.299Z,101220.19
2023-01-23T04:39:25.234Z,101223.75
2023-01-23T04:41:52.243Z,101226.28
2023-01-23T04:44:48.412Z,101235.09
2023-01-23T04:47:33.626Z,101242.88
2023-01-23T04:50:03.651Z,101232.38
2023-01-23T04:52:33.558Z,101246.44
2023-01-23T04:55:00.468Z,101250.88
2023-01-23T04:57:27.740Z,101260.53
2023-01-23T05:00:01.420Z,101255.28
2023-01-23T05:02:30.787Z,101262.22
2023-01-23T05:04:58.067Z,101258.66
2023-01-23T05:07:26.045Z,101261.28
2023-01-23T05:10:08.682Z,101255.94
2023-01-23T05:12:36.410Z,101255.94
2023-01-23T05:15:04.739Z,101254.16
2023-01-23T05:17:35.078Z,101255.00
2023-01-23T05:20:03.687Z,101260.31
2023-01-23T05:22:31.144Z,101259.31
2023-01-23T05:24:59.368Z,101262.03
2023-01-23T05:27:29.496Z,101258.47
2023-01-23T05:29:56.563Z,101267.19
2023-01-23T05:32:26.160Z,101263.72
2023-01-23T05:35:16.634Z,101268.03
2023-01-23T05:37:47.763Z,101269.72
2023-01-23T05:40:15.194Z,101268.03
2023-01-23T05:43:02.444Z,101277.72
2023-01-23T05:45:48.380Z,101280.34
2023-01-23T05:48:25.379Z,101276.75
2023-01-23T05:50:52.458Z,101274.97
2023-01-23T05:53:21.071Z,101277.59
2023-01-23T05:55:47.974Z,101270.66
2023-01-23T05:58:16.174Z,101280.34
2023-01-23T06:01:05.371Z,101275.91
2023-01-23T06:04:01.294Z,101277.81
2023-01-23T06:06:36.190Z,101276.09
2023-01-23T06:09:03.527Z,101271.88
2023-01-23T06:11:30.553Z,101269.34
2023-01-23T06:13:57.480Z,101269.53
2023-01-23T06:16:24.411Z,101282.75
2023-01-23T06:18:51.910Z,101269.81
2023-01-23T06:21:19.266Z,101272.63
2023-01-23T06:23:46.877Z,101275.44
2023-01-23T06:26:14.759Z,101266.88
2023-01-23T06:28:41.779Z,101264.44
2023-01-23T06:31:10.227Z,101267.25
2023-01-23T06:33:52.916Z,101264.91
2023-01-23T06:36:24.282Z,101269.50
2023-01-23T06:38:52.425Z,101270.63
2023-01-23T06:41:24.425Z,101275.19
2023-01-23T06:43:54.780Z,101281.47
2023-01-23T06:46:24.638Z,101277.34
2023-01-23T06:48:54.018Z,101286.25
2023-01-23T06:51:21.292Z,101297.75
2023-01-23T06:53:49.171Z,101293.63
2023-01-23T06:56:16.532Z,101302.59
2023-01-23T06:58:45.999Z,101308.03
2023-01-23T07:01:22.752Z,101309.88
2023-01-23T07:04:01.926Z,101314.47
2023-01-23T07:06:31.176Z,101320.72
2023-01-23T07:08:58.318Z,101324.38
2023-01-23T07:11:25.769Z,101329.72
2023-01-23T07:13:53.173Z,101337.66
2023-01-23T07:16:20.562Z,101344.69
2023-01-23T07:18:47.563Z,101341.22
2023-01-23T07:21:14.519Z,101351.72
2023-01-23T07:23:41.482Z,101349.19
2023-01-23T07:26:09.514Z,101353.47
2023-01-23T07:28:37.633Z,101363.03
2023-01-23T07:31:05.246Z,101364.75
2023-01-23T07:33:32.672Z,101360.25
2023-01-23T07:35:59.760Z,101362.78
2023-01-23T07:38:26.825Z,101368.75
2023-01-23T07:40:58.692Z,101361.63
2023-01-23T07:43:26.672Z,101364.91
2023-01-23T07:45:53.892Z,101373.56
2023-01-23T07:48:20.795Z,101368.13
2023-01-23T07:50:47.759Z,101364.41
2023-01-23T07:53:14.668Z,101358.13
2023-01-23T07:55:41.617Z,101360.59
2023-01-23T07:58:08.722Z,101359.44
2023-01-23T08:00:35.707Z,101362.84
2023-01-23T08:03:02.621Z,101362.66
2023-01-23T08:05:29.575Z,101361.63
2023-01-23T08:08:12.200Z,101350.13
2023-01-23T08:10:39.890Z,101358.59
2023-01-23T08:13:06.865Z,101355.78
2023-01-23T08:15:33.800Z,101356.53
2023-01-23T08:18:01.051Z,101351.00
2023-01-23T08:20:28.130Z,101352.59
2023-01-23T08:22:56.228Z,101354.97
2023-01-23T08:25:23.136Z,101364.44
2023-01-23T08:27:50.138Z,101366.81
2023-01-23T08:30:17.783Z,101365.81
2023-01-23T08:32:45.079Z,101359.41
2023-01-23T08:35:12.005Z,101361.88
2023-01-23T08:37:40.954Z,101359.88
2023-01-23T08:40:08.660Z,101352.69
2023-01-23T08:42:35.662Z,101358.59
2023-01-23T08:45:02.707Z,101359.25
2023-01-23T08:47:30.469Z,101359.06
2023-01-23T08:49:57.397Z,101365.00
2023-01-23T08:52:24.393Z,101360.38
2023-01-23T08:54:51.300Z,101361.06
2023-01-23T08:57:18.200Z,101362.66
2023-01-23T08:59:45.583Z,101363.38
2023-01-23T09:02:13.011Z,101364.91
2023-01-23T09:04:40.369Z,101370.00
2023-01-23T09:07:07.400Z,101369.91
2023-01-23T09:09:34.378Z,101380.31
2023-01-23T09:12:01.436Z,101384.63
2023-01-23T09:14:28.369Z,101386.25
2023-01-23T09:16:55.349Z,101387.09
2023-01-23T09:19:22.398Z,101380.88
2023-01-23T09:21:49.370Z,101377.31
2023-01-23T09:24:16.804Z,101376.38
2023-01-23T09:26:43.744Z,101378.06
2023-01-23T09:29:10.695Z,101381.47
2023-01-23T09:31:38.008Z,101379.69
2023-01-23T09:34:04.926Z,101377.03
2023-01-23T09:36:42.467Z,101390.09
2023-01-23T09:39:10.436Z,101390.84
2023-01-23T09:41:39.612Z,101390.84
2023-01-23T09:44:22.782Z,101387.19
2023-01-23T09:47:35.127Z,101400.25
2023-01-23T09:50:33.239Z,101395.72
2023-01-23T09:53:12.538Z,101398.34
2023-01-23T09:55:45.456Z,101394.78
2023-01-23T09:58:39.945Z,101391.19
2023-01-23T10:01:13.438Z,101396.41
2023-01-23T10:03:41.205Z,101405.13
2023-01-23T10:06:24.753Z,101402.41
2023-01-23T10:09:19.281Z,101401.56
2023-01-23T10:12:15.498Z,101391.13
2023-01-23T10:15:15.792Z,101396.28
2023-01-23T10:18:10.613Z,101403.25
2023-01-23T10:20:56.502Z,101401.34
2023-01-23T10:23:32.268Z,101390.94
2023-01-23T10:26:02.455Z,101395.16
2023-01-23T10:28:40.132Z,101390.72
2023-01-23T10:31:57.288Z,101387.06
2023-01-23T10:34:34.453Z,101384.34
2023-01-23T10:37:46.407Z,101387.66
2023-01-23T10:40:41.388Z,101389.22
2023-01-23T10:43:20.760Z,101388.28
2023-01-23T10:45:49.773Z,101397.03
2023-01-23T10:48:36.121Z,101398.72
2023-01-23T10:51:04.204Z,101397.88
2023-01-23T10:53:31.291Z,101384.63
2023-01-23T10:56:02.209Z,101389.78
2023-01-23T10:58:38.129Z,101388.00
2023-01-23T11:01:18.869Z,101390.75
2023-01-23T11:03:46.011Z,101389.69
2023-01-23T11:06:20.544Z,101388.75
2023-01-23T11:09:04.222Z,101390.63
2023-01-23T11:11:32.775Z,101386.13
2023-01-23T11:14:16.866Z,101385.09
2023-01-23T11:16:44.559Z,101385.09
2023-01-23T11:19:21.389Z,101382.38
2023-01-23T11:21:55.343Z,101376.91
2023-01-23T11:24:37.791Z,101383.84
2023-01-23T11:27:15.420Z,101397.66
2023-01-23T11:30:09.406Z,101394.19
2023-01-23T11:33:01.946Z,101388.94
2023-01-23T11:35:44.783Z,101381.88
2023-01-23T11:38:17.997Z,101381.78
2023-01-23T11:40:48.019Z,101372.94
2023-01-23T11:43:17.201Z,101371.91
2023-01-23T11:46:06.791Z,101366.53
2023-01-23T11:49:18.950Z,101360.16
2023-01-23T11:52:20.487Z,101352.91
2023-01-23T11:55:11.970Z,101355.41
2023-01-23T11:58:06.316Z,101350.06
2023-01-23T12:00:44.636Z,101357.88
2023-01-23T12:03:26.492Z,101344.59
2023-01-23T12:06:36.706Z,101353.13
2023-01-23T12:09:18.636Z,101343.75
2023-01-23T12:12:16.992Z,101332.06
2023-01-23T12:15:08.107Z,101331.88
2023-01-23T12:17:52.549Z,101326.41
2023-01-23T12:21:08.729Z,101335.81
2023-01-23T12:24:00.361Z,101325.50
2023-01-23T12:26:31.014Z,101326.00
2023-01-23T12:29:26.528Z,101320.47
2023-01-23T12:32:27.856Z,101314.06
2023-01-23T12:35:06.635Z,101316.56
2023-01-23T12:38:09.287Z,101312.78
2023-01-23T12:41:11.767Z,101306.38
2023-01-23T12:44:04.935Z,101307.03
2023-01-23T12:47:00.303Z,101314.72
2023-01-23T12:50:01.382Z,101306.63
2023-01-23T12:53:03.853Z,101303.66
2023-01-23T12:55:38.172Z,101296.47
2023-01-23T12:58:09.276Z,101298.94
2023-01-23T13:00:46.256Z,101303.97
2023-01-23T13:03:49.504Z,101300.19
2023-01-23T13:06:32.220Z,101298.28
2023-01-23T13:09:18.962Z,101293.03
2023-01-23T13:12:21.797Z,101290.31
2023-01-23T13:15:14.211Z,101296.50
2023-01-23T13:18:00.399Z,101295.66
2023-01-23T13:20:49.673Z,101291.34
2023-01-23T13:23:26.481Z,101291.22
2023-01-23T13:26:16.132Z,101290.31
2023-01-23T13:28:57.830Z,101288.59
2023-01-23T13:31:47.651Z,101282.41
2023-01-23T13:34:17.964Z,101290.31
2023-01-23T13:36:50.451Z,101285.88
2023-01-23T13:39:17.392Z,101278.81
2023-01-23T13:41:47.055Z,101282.28
2023-01-23T13:44:40.777Z,101274.28
2023-01-23T14:24:49.770Z,101255.41
2023-01-23T14:27:30.464Z,101256.84
2023-01-23T14:30:09.705Z,101246.13
2023-01-23T14:32:38.309Z,101245.03
2023-01-23T14:35:31.329Z,101245.47
2023-01-23T14:38:02.104Z,101241.44
2023-01-23T14:40:37.287Z,101244.06
2023-01-23T14:43:09.286Z,101241.38
2023-01-23T14:45:37.672Z,101236.31
2023-01-23T14:48:07.945Z,101240.06
2023-01-23T14:50:35.610Z,101231.69
2023-01-23T14:53:12.358Z,101243.63
2023-01-23T14:55:45.006Z,101239.91
2023-01-23T14:58:23.509Z,101246.66
2023-01-23T15:00:53.225Z,101242.09
2023-01-23T15:03:40.032Z,101246.28
2023-01-23T15:06:20.417Z,101249.06
2023-01-23T15:08:48.708Z,101249.16
2023-01-23T15:11:17.921Z,101249.28
2023-01-23T15:13:54.660Z,101252.13
2023-01-23T15:16:25.854Z,101255.00
2023-01-23T15:19:18.711Z,101250.78
2023-01-23T15:21:45.645Z,101254.63
2023-01-23T15:24:12.563Z,101261.06
2023-01-23T15:26:42.776Z,101263.09
2023-01-23T15:29:09.754Z,101261.63
2023-01-23T15:31:45.063Z,101261.84
2023-01-23T15:34:15.015Z,101268.41
2023-01-23T15:37:24.795Z,101265.25
2023-01-23T15:40:00.698Z,101267.59
2023-01-23T15:42:33.018Z,101262.75
2023-01-23T15:45:01.596Z,101277.19
2023-01-23T15:47:32.177Z,101276.69
2023-01-23T15:50:01.499Z,101277.94
2023-01-23T15:52:49.123Z,101273.00
2023-01-23T15:55:16.873Z,101271.75
2023-01-23T15:57:43.892Z,101276.50
2023-01-23T16:00:26.312Z,101274.28
2023-01-23T16:02:57.165Z,101281.75
2023-01-23T16:05:33.040Z,101277.75
2023-01-23T16:08:02.425Z,101279.97
2023-01-23T16:10:35.042Z,101279.41
2023-01-23T16:13:02.564Z,101275.41
2023-01-23T16:15:35.242Z,101272.16
2023-01-23T16:18:04.442Z,101276.03
2023-01-23T16:20:44.480Z,101279.09
2023-01-23T16:23:18.623Z,101273.19
2023-01-23T16:25:46.607Z,101278.75
2023-01-23T16:28:22.927Z,101285.16
2023-01-23T16:30:51.716Z,101282.75
2023-01-23T16:33:20.363Z,101278.63
2023-01-23T16:35:49.386Z,101273.56
2023-01-23T16:38:24.019Z,101277.22
2023-01-23T16:40:53.145Z,101276.59
2023-01-23T16:43:21.800Z,101275.09
2023-01-23T16:45:49.025Z,101273.63
2023-01-23T16:48:26.317Z,101271.19
2023-01-23T16:51:08.152Z,101273.19
2023-01-23T16:53:41.133Z,101277.81
2023-01-23T16:56:17.975Z,101275.50
2023-01-23T16:58:44.947Z,101276.50
2023-01-23T17:01:20.414Z,101277.69
2023-01-23T17:03:58.968Z,101280.50
2023-01-23T17:06:26.228Z,101284.25
2023-01-23T17:08:53.630Z,101269.50
2023-01-23T17:11:26.570Z,101267.16
2023-01-23T17:13:59.052Z,101284.09
2023-01-23T17:16:28.191Z,101278.19
2023-01-23T17:18:59.381Z,101275.00
2023-01-23T17:21:34.171Z,101281.41
2023-01-23T17:24:01.327Z,101286.00
2023-01-23T17:26:28.281Z,101293.38
2023-01-23T17:28:55.372Z,101295.31
2023-01-23T17:31:25.715Z,101292.06
2023-01-23T17:33:53.286Z,101287.09
2023-01-23T17:36:20.273Z,101297.88
2023-01-23T17:38:47.490Z,101301.53
2023-01-23T17:41:16.438Z,101313.19
2023-01-23T17:43:44.622Z,101297.63
2023-01-23T17:46:31.190Z,101297.78
2023-01-23T17:48:58.309Z,101299.78
2023-01-23T17:51:26.134Z,101304.25
2023-01-23T17:53:53.187Z,101302.66
2023-01-23T17:56:20.130Z,101308.13
2023-01-23T17:58:47.123Z,101310.09
2023-01-23T18:01:25.777Z,101315.44
2023-01-23T18:03:53.635Z,101315.53
2023-01-23T18:06:20.615Z,101320.03
2023-01-23T18:08:47.791Z,101322.84
2023-01-23T18:11:23.650Z,101335.25
2023-01-23T18:14:22.772Z,101340.66
2023-01-23T18:16:50.177Z,101338.22
2023-01-23T18:19:23.783Z,101346.13
2023-01-23T18:21:54.567Z,101341.69
2023-01-23T18:24:31.694Z,101342.63
2023-01-23T18:27:00.018Z,101345.28
2023-01-23T18:29:54.768Z,101340.00
2023-01-23T18:34:10.743Z,101335.59
2023-01-23T18:36:49.678Z,101337.28
2023-01-23T18:39:44.086Z,101334.66
2023-01-23T18:42:35.519Z,101337.28
2023-01-23T18:45:20.985Z,101344.97
2023-01-23T18:47:53.990Z,101346.66
2023-01-23T18:50:25.285Z,101344.88
2023-01-23T18:53:34.065Z,101348.28
2023-01-23T18:56:27.341Z,101341.97
2023-01-23T18:59:25.868Z,101347.13
2023-01-23T19:02:12.824Z,101343.50
2023-01-23T19:05:10.562Z,101335.50
2023-01-23T19:07:38.216Z,101335.41
2023-01-23T19:10:07.718Z,101340.50
2023-01-23T19:12:46.968Z,101343.03
2023-01-23T19:15:30.898Z,101345.47
2023-01-23T19:18:42.825Z,101343.59
2023-01-23T19:21:24.999Z,101351.41
2023-01-23T19:24:10.997Z,101360.03
2023-01-23T19:26:40.842Z,101352.88
2023-01-23T19:29:26.128Z,101352.72
2023-01-23T19:32:07.254Z,101355.25
2023-01-23T19:34:34.931Z,101352.50
2023-01-23T19:37:02.764Z,101352.34
2023-01-23T19:39:30.649Z,101348.75
2023-01-23T19:41:59.490Z,101356.44
2023-01-23T19:44:28.842Z,101357.22
2023-01-23T19:46:55.998Z,101360.59
2023-01-23T19:49:23.021Z,101356.06
2023-01-23T19:51:49.949Z,101356.84
2023-01-23T19:54:17.040Z,101343.50
2023-01-23T19:56:44.206Z,101351.22
2023-01-23T19:59:11.441Z,101342.38
2023-01-23T20:01:41.163Z,101340.50
2023-01-23T20:04:13.706Z,101335.13
2023-01-23T20:06:40.742Z,101343.78
2023-01-23T20:09:14.371Z,101338.44
2023-01-23T20:11:42.646Z,101340.97
2023-01-23T20:14:09.674Z,101339.06
2023-01-23T20:16:40.111Z,101337.09
2023-01-23T20:19:07.556Z,101335.31
2023-01-23T20:21:34.686Z,101331.56
2023-01-23T20:24:01.672Z,101330.50
2023-01-23T20:26:28.685Z,101330.31
2023-01-23T20:28:55.580Z,101329.28
2023-01-23T20:31:22.764Z,101336.88
2023-01-23T20:33:50.300Z,101344.47
2023-01-23T20:36:17.355Z,101351.25
2023-01-23T20:38:44.333Z,101346.63
2023-01-23T20:41:14.884Z,101348.13
2023-01-23T20:43:44.966Z,101344.38
2023-01-23T20:46:14.550Z,101345.84
2023-01-23T20:48:44.163Z,101355.25
2023-01-23T20:51:13.233Z,101361.97
2023-01-23T20:53:40.602Z,101338.09
2023-01-23T20:56:09.453Z,101355.38
2023-01-23T20:58:59.536Z,101349.94
2023-01-23T21:01:30.731Z,101349.72
2023-01-23T21:03:57.793Z,101348.69
2023-01-23T21:06:24.705Z,101351.22
2023-01-23T21:08:51.609Z,101346.69
2023-01-23T21:11:20.734Z,101356.25
2023-01-23T21:13:51.820Z,101358.72
2023-01-23T21:16:20.457Z,101368.31
2023-01-23T21:18:48.028Z,101355.13
2023-01-23T21:21:18.819Z,101364.72
2023-01-23T21:23:48.858Z,101367.25
2023-01-23T21:26:19.483Z,101369.81
2023-01-23T21:28:48.654Z,101373.34
2023-01-23T21:31:20.771Z,101373.28
2023-01-23T21:33:48.412Z,101373.34
2023-01-23T21:36:23.012Z,101369.81
2023-01-23T21:39:02.125Z,101379.38
2023-01-23T21:41:29.045Z,101382.75
2023-01-23T21:43:56.625Z,101386.22
2023-01-23T21:46:23.776Z,101393.19
2023-01-23T21:48:52.142Z,101399.28
2023-01-23T21:51:25.172Z,101394.88
2023-01-23T21:53:52.077Z,101404.56
2023-01-23T21:56:22.101Z,101406.28
2023-01-23T21:58:50.169Z,101406.28
2023-01-23T22:01:35.566Z,101402.69
2023-01-23T22:04:18.065Z,101405.34
2023-01-23T22:06:45.713Z,101405.34
2023-01-23T22:09:18.431Z,101407.97
2023-01-23T22:11:47.182Z,101414.91
2023-01-23T22:14:15.013Z,101413.22
2023-01-23T22:16:50.594Z,101421.13
2023-01-23T22:19:24.454Z,101424.72
2023-01-23T22:21:55.727Z,101418.69
2023-01-23T22:24:22.818Z,101418.69
2023-01-23T22:26:49.811Z,101409.81
2023-01-23T22:29:16.903Z,101405.41
2023-01-23T22:31:44.249Z,101418.69
2023-01-23T22:34:11.385Z,101421.41
2023-01-23T22:36:38.322Z,101423.22
2023-01-23T22:39:05.332Z,101425.84
2023-01-23T22:41:32.722Z,101425.84
2023-01-23T22:43:59.660Z,101413.63
2023-01-23T22:46:27.947Z,101424.16
2023-01-23T22:48:54.908Z,101427.75
2023-01-23T22:51:25.639Z,101427.75
2023-01-23T22:53:53.855Z,101420.75
2023-01-23T22:56:22.538Z,101423.50
2023-01-23T22:58:52.576Z,101420.97
2023-01-23T23:01:22.891Z,101414.75
2023-01-23T23:03:50.460Z,101420.22
2023-01-23T23:06:18.510Z,101428.97
2023-01-23T23:08:47.979Z,101439.50
2023-01-23T23:11:24.889Z,101429.09
2023-01-23T23:13:52.608Z,101432.63
2023-01-23T23:16:23.389Z,101426.44
2023-01-23T23:18:54.002Z,101425.69
2023-01-23T23:21:25.209Z,101419.47
2023-01-23T23:23:57.855Z,101429.25
2023-01-23T23:26:26.595Z,101420.53
2023-01-23T23:28:55.152Z,101424.94
2023-01-23T23:31:22.321Z,101428.41
2023-01-23T23:33:49.390Z,101414.50
2023-01-23T23:36:16.817Z,101410.09
2023-01-23T23:38:44.044Z,101416.19
2023-01-23T23:41:16.371Z,101411.03
2023-01-23T23:43:44.174Z,101418.94
2023-01-23T23:46:12.926Z,101424.28
2023-01-23T23:48:39.996Z,101414.59
2023-01-23T23:51:11.118Z,101421.66
2023-01-23T23:53:38.094Z,101408.47
2023-01-23T23:56:06.302Z,101403.22
2023-01-23T23:58:36.325Z,101413.00
